createdAt,value
2018-07-04T00:02:11.251Z,99.60
2018-07-04T00:04:52.459Z,99.30
2018-07-04T00:07:32.947Z,99.20
2018-07-04T00:10:13.715Z,99.50
2018-07-04T00:12:54.084Z,99.50
2018-07-04T00:15:34.384Z,99.80
2018-07-04T00:18:14.800Z,99.90
2018-07-04T00:20:55.222Z,99.70
2018-07-04T00:23:35.509Z,99.20
2018-07-04T00:26:15.910Z,99.10
2018-07-04T00:28:56.439Z,99.00
2018-07-04T00:31:36.742Z,99.20
2018-07-04T00:34:17.251Z,99.20
2018-07-04T00:36:58.096Z,99.20
2018-07-04T00:39:38.404Z,99.20
2018-07-04T00:42:18.855Z,99.10
2018-07-04T00:44:59.153Z,98.90
2018-07-04T00:47:39.549Z,98.70
2018-07-04T00:50:19.848Z,98.60
2018-07-04T00:53:00.686Z,98.20
2018-07-04T00:55:41.015Z,98.30
2018-07-04T00:58:21.456Z,98.50
2018-07-04T01:01:01.858Z,98.70
2018-07-04T01:03:42.115Z,98.70
2018-07-04T01:06:22.659Z,98.80
2018-07-04T01:09:03.180Z,98.90
2018-07-04T01:11:43.517Z,99.20
2018-07-04T01:14:23.843Z,99.20
2018-07-04T01:17:04.275Z,99.40
2018-07-04T01:19:44.762Z,99.50
2018-07-04T01:22:25.143Z,99.60
2018-07-04T01:25:05.673Z,99.60
2018-07-04T01:27:46.295Z,99.80
2018-07-04T01:30:26.724Z,99.70
2018-07-04T01:33:07.440Z,99.80
2018-07-04T01:35:47.900Z,99.90
2018-07-04T01:38:28.363Z,99.90
2018-07-04T01:41:08.624Z,99.90
2018-07-04T01:43:48.891Z,99.90
2018-07-04T01:46:29.207Z,99.90
2018-07-04T01:49:09.592Z,99.90
2018-07-04T01:51:50.030Z,99.90
2018-07-04T01:54:31.168Z,99.90
2018-07-04T01:57:11.589Z,99.70
2018-07-04T01:59:51.959Z,99.80
2018-07-04T02:02:32.591Z,99.40
2018-07-04T02:05:12.918Z,99.30
2018-07-04T02:07:53.260Z,99.30
2018-07-04T02:10:33.767Z,99.50
2018-07-04T02:13:14.670Z,99.70
2018-07-04T02:15:55.149Z,99.80
2018-07-04T02:18:35.611Z,99.70
2018-07-04T02:21:15.837Z,99.80
2018-07-04T02:23:56.152Z,99.70
2018-07-04T02:26:36.604Z,99.40
2018-07-04T02:29:17.000Z,99.40
2018-07-04T02:31:57.371Z,99.00
2018-07-04T02:34:37.776Z,99.50
2018-07-04T02:37:18.327Z,99.60
2018-07-04T02:39:58.918Z,99.60
2018-07-04T02:42:39.499Z,99.90
2018-07-04T02:45:19.831Z,99.90
2018-07-04T02:48:00.292Z,99.80
2018-07-04T02:50:40.642Z,98.70
2018-07-04T02:53:20.971Z,98.10
2018-07-04T02:56:01.421Z,98.10
2018-07-04T02:58:41.824Z,98.30
2018-07-04T03:01:22.239Z,98.50
2018-07-04T03:04:02.745Z,98.70
2018-07-04T03:06:43.151Z,99.00
2018-07-04T03:09:23.575Z,98.90
2018-07-04T03:12:03.954Z,98.90
2018-07-04T03:14:44.282Z,98.90
2018-07-04T03:17:24.688Z,99.10
2018-07-04T03:20:05.077Z,99.20
2018-07-04T03:22:45.623Z,99.10
2018-07-04T03:25:26.008Z,99.50
2018-07-04T03:28:06.465Z,99.30
2018-07-04T03:30:46.788Z,99.80
2018-07-04T03:33:27.111Z,99.90
2018-07-04T03:36:07.572Z,99.60
2018-07-04T03:38:47.944Z,99.60
2018-07-04T03:41:28.324Z,99.70
2018-07-04T03:44:08.861Z,99.80
2018-07-04T03:46:49.427Z,99.60
2018-07-04T03:49:29.790Z,99.60
2018-07-04T03:52:10.123Z,99.60
2018-07-04T03:57:24.799Z,99.90
2018-07-04T04:02:39.770Z,99.90
2018-07-04T04:05:20.248Z,99.90
2018-07-04T04:08:00.620Z,99.80
2018-07-04T04:10:41.095Z,99.30
2018-07-04T04:13:21.550Z,99.90
2018-07-04T04:16:02.143Z,99.20
2018-07-04T04:18:42.475Z,98.00
2018-07-04T04:21:23.051Z,97.50
2018-07-04T04:24:03.324Z,97.20
2018-07-04T04:26:43.722Z,97.80
2018-07-04T04:29:24.184Z,96.60
2018-07-04T04:32:04.635Z,96.30
2018-07-04T04:34:44.913Z,95.90
2018-07-04T04:37:25.259Z,94.70
2018-07-04T04:40:05.632Z,93.80
2018-07-04T04:42:46.097Z,93.50
2018-07-04T04:45:26.452Z,92.90
2018-07-04T04:48:06.975Z,92.50
2018-07-04T04:50:47.330Z,93.00
2018-07-04T04:53:27.826Z,92.10
2018-07-04T04:56:08.340Z,91.70
2018-07-04T04:58:48.840Z,91.30
2018-07-04T05:01:29.131Z,90.70
2018-07-04T05:04:09.951Z,90.00
2018-07-04T05:06:50.232Z,90.20
2018-07-04T05:09:30.732Z,89.80
2018-07-04T05:12:11.032Z,90.70
2018-07-04T05:14:51.349Z,90.20
2018-07-04T05:17:31.745Z,90.10
2018-07-04T05:20:12.285Z,89.80
2018-07-04T05:22:52.664Z,90.60
2018-07-04T05:25:32.958Z,90.40
2018-07-04T05:28:13.599Z,90.40
2018-07-04T05:30:53.983Z,88.30
2018-07-04T05:33:34.343Z,85.80
2018-07-04T05:36:14.731Z,86.00
2018-07-04T05:38:55.107Z,85.20
2018-07-04T05:41:36.256Z,85.00
2018-07-04T05:44:16.744Z,82.20
2018-07-04T05:46:57.192Z,80.70
2018-07-04T05:49:37.538Z,79.60
2018-07-04T05:52:18.059Z,78.80
2018-07-04T05:54:58.350Z,76.20
2018-07-04T05:57:38.811Z,75.40
2018-07-04T06:00:19.267Z,72.60
2018-07-04T06:02:59.670Z,72.10
2018-07-04T06:05:40.123Z,71.20
2018-07-04T06:08:20.400Z,66.30
2018-07-04T06:11:00.932Z,68.00
2018-07-04T06:13:41.373Z,69.30
2018-07-04T06:16:22.087Z,68.50
2018-07-04T06:19:02.416Z,69.70
2018-07-04T06:21:42.763Z,69.30
2018-07-04T06:24:23.318Z,69.70
2018-07-04T06:27:03.987Z,68.90
2018-07-04T06:32:19.147Z,65.00
2018-07-04T06:34:59.592Z,66.40
2018-07-04T06:37:41.252Z,67.40
2018-07-04T06:40:10.236Z,69.40
2018-07-04T06:42:38.667Z,67.70
2018-07-04T06:45:06.655Z,65.40
2018-07-04T06:47:34.631Z,64.10
2018-07-04T06:50:02.596Z,58.50
2018-07-04T06:52:30.548Z,57.80
2018-07-04T06:54:58.637Z,58.90
2018-07-04T06:57:26.596Z,60.40
2018-07-04T06:59:54.587Z,60.00
2018-07-04T07:02:22.562Z,64.30
2018-07-04T07:05:03.565Z,65.30
2018-07-04T07:07:43.968Z,65.60
2018-07-04T07:10:24.856Z,59.40
2018-07-04T07:13:05.273Z,58.70
2018-07-04T07:15:45.753Z,59.50
2018-07-04T07:18:26.136Z,56.90
2018-07-04T07:21:06.421Z,59.10
2018-07-04T07:23:46.935Z,58.70
2018-07-04T07:26:27.401Z,61.20
2018-07-04T07:29:07.800Z,62.30
2018-07-04T07:31:48.238Z,57.30
2018-07-04T07:34:31.493Z,55.50
2018-07-04T07:37:11.790Z,54.40
2018-07-04T07:39:52.487Z,55.20
2018-07-04T07:42:32.902Z,59.00
2018-07-04T07:45:13.219Z,59.70
2018-07-04T07:47:53.607Z,57.50
2018-07-04T07:50:34.105Z,58.00
2018-07-04T07:53:14.585Z,53.80
2018-07-04T07:55:54.917Z,51.70
2018-07-04T07:58:35.240Z,49.80
2018-07-04T08:01:15.555Z,47.50
2018-07-04T08:03:55.953Z,48.90
2018-07-04T08:06:36.827Z,53.40
2018-07-04T08:09:17.305Z,54.10
2018-07-04T08:11:57.670Z,53.90
2018-07-04T08:14:38.321Z,51.70
2018-07-04T08:17:18.919Z,54.50
2018-07-04T08:20:00.496Z,53.30
2018-07-04T08:22:41.050Z,55.60
2018-07-04T08:25:21.340Z,51.90
2018-07-04T08:28:01.897Z,55.90
2018-07-04T08:30:42.289Z,56.40
2018-07-04T08:33:22.847Z,53.50
2018-07-04T08:36:03.347Z,55.80
2018-07-04T08:38:43.815Z,53.00
2018-07-04T08:41:24.032Z,51.80
2018-07-04T08:44:04.716Z,51.80
2018-07-04T08:46:45.164Z,53.60
2018-07-04T08:49:25.608Z,51.50
2018-07-04T08:52:06.125Z,55.20
2018-07-04T08:54:46.608Z,54.20
2018-07-04T08:57:26.971Z,51.20
2018-07-04T09:00:07.336Z,53.50
2018-07-04T09:02:47.896Z,57.00
2018-07-04T09:05:28.288Z,56.20
2018-07-04T09:08:11.743Z,56.00
2018-07-04T09:13:26.122Z,51.40
2018-07-04T09:16:06.376Z,48.80
2018-07-04T09:18:46.801Z,47.30
2018-07-04T09:21:27.184Z,47.90
2018-07-04T09:24:09.178Z,48.10
2018-07-04T09:26:49.540Z,49.30
2018-07-04T09:29:29.946Z,50.60
2018-07-04T09:32:10.346Z,49.30
2018-07-04T09:34:50.806Z,45.30
2018-07-04T09:37:31.101Z,47.10
2018-07-04T09:40:11.600Z,44.80
2018-07-04T09:42:51.996Z,47.20
2018-07-04T09:45:32.424Z,48.50
2018-07-04T09:48:12.955Z,43.90
2018-07-04T09:50:53.913Z,44.40
2018-07-04T09:53:37.534Z,50.70
2018-07-04T09:56:18.614Z,49.00
2018-07-04T09:58:59.163Z,52.20
2018-07-04T10:01:39.589Z,54.50
2018-07-04T10:04:19.975Z,57.40
2018-07-04T10:07:01.118Z,53.70
2018-07-04T10:09:41.636Z,49.10
2018-07-04T10:12:22.237Z,48.00
2018-07-04T10:15:02.756Z,47.20
2018-07-04T10:17:43.082Z,47.00
2018-07-04T10:20:23.694Z,46.20
2018-07-04T10:23:04.285Z,48.90
2018-07-04T10:25:44.672Z,51.30
2018-07-04T10:30:59.480Z,54.20
2018-07-04T10:33:39.930Z,55.90
2018-07-04T10:36:20.368Z,52.10
2018-07-04T10:39:00.823Z,50.50
2018-07-04T10:41:41.274Z,50.10
2018-07-04T10:44:21.688Z,50.50
2018-07-04T10:47:02.106Z,51.10
2018-07-04T10:49:42.476Z,52.70
2018-07-04T10:52:22.967Z,52.80
2018-07-04T10:55:03.300Z,54.70
2018-07-04T10:57:43.797Z,48.50
2018-07-04T11:00:24.321Z,53.10
2018-07-04T11:03:04.779Z,50.70
2018-07-04T11:05:45.128Z,49.60
2018-07-04T11:08:25.827Z,51.70
2018-07-04T11:11:06.453Z,52.60
2018-07-04T11:13:46.894Z,55.30
2018-07-04T11:16:27.441Z,54.80
2018-07-04T11:19:07.821Z,55.20
2018-07-04T11:21:48.092Z,55.70
2018-07-04T11:24:28.662Z,56.10
2018-07-04T11:27:09.064Z,57.90
2018-07-04T11:29:49.460Z,56.10
2018-07-04T11:32:29.971Z,53.70
2018-07-04T11:35:10.328Z,50.50
2018-07-04T11:37:50.643Z,52.10
2018-07-04T11:40:31.024Z,50.30
2018-07-04T11:43:11.348Z,52.30
2018-07-04T11:45:51.747Z,49.60
2018-07-04T11:48:19.747Z,51.70
2018-07-04T11:50:47.728Z,51.50
2018-07-04T11:53:15.727Z,50.10
2018-07-04T11:55:43.795Z,50.30
2018-07-04T11:58:12.032Z,45.70
2018-07-04T12:00:39.999Z,47.80
2018-07-04T12:03:13.884Z,46.00
2018-07-04T12:05:54.413Z,48.50
2018-07-04T12:08:22.675Z,48.10
2018-07-04T12:10:51.120Z,49.50
2018-07-04T12:13:20.294Z,48.80
2018-07-04T12:15:49.383Z,50.30
2018-07-04T12:18:17.423Z,53.20
2018-07-04T12:20:45.747Z,51.50
2018-07-04T12:23:14.716Z,53.70
2018-07-04T12:25:43.717Z,49.80
2018-07-04T12:28:11.710Z,52.00
2018-07-04T12:30:39.830Z,50.00
2018-07-04T12:33:07.815Z,49.80
2018-07-04T12:38:04.007Z,53.10
2018-07-04T12:40:32.015Z,49.70
2018-07-04T12:42:59.917Z,50.60
2018-07-04T12:45:27.929Z,48.20
2018-07-04T12:47:55.939Z,50.90
2018-07-04T12:50:28.091Z,51.00
2018-07-04T12:52:56.174Z,50.60
2018-07-04T12:58:17.297Z,52.90
2018-07-04T13:00:57.851Z,52.20
2018-07-04T13:03:38.671Z,55.10
2018-07-04T13:06:19.056Z,51.10
2018-07-04T13:08:59.488Z,51.10
2018-07-04T13:11:40.001Z,46.80
2018-07-04T13:14:20.352Z,47.70
2018-07-04T13:17:00.752Z,51.50
2018-07-04T13:19:41.943Z,50.60
2018-07-04T13:22:22.429Z,49.30
2018-07-04T13:25:02.748Z,51.10
2018-07-04T13:30:17.505Z,49.30
2018-07-04T13:32:58.133Z,52.90
2018-07-04T13:35:38.648Z,55.60
2018-07-04T13:38:19.109Z,54.00
2018-07-04T13:40:59.320Z,51.30
2018-07-04T13:43:39.587Z,50.90
2018-07-04T13:46:19.850Z,48.60
2018-07-04T13:49:00.199Z,51.60
2018-07-04T13:51:40.740Z,53.30
2018-07-04T13:54:21.353Z,52.70
2018-07-04T13:57:01.642Z,53.10
2018-07-04T13:59:42.052Z,54.00
2018-07-04T14:02:22.535Z,52.60
2018-07-04T14:05:03.549Z,54.10
2018-07-04T14:10:18.489Z,55.30
2018-07-04T14:12:59.060Z,55.10
2018-07-04T14:15:39.419Z,55.30
2018-07-04T14:18:19.869Z,53.10
2018-07-04T14:23:34.680Z,51.50
2018-07-04T14:26:15.888Z,51.20
2018-07-04T14:28:56.371Z,54.70
2018-07-04T14:31:36.874Z,54.80
2018-07-04T14:34:17.257Z,57.00
2018-07-04T14:36:57.599Z,55.30
2018-07-04T14:39:37.898Z,54.40
2018-07-04T14:44:52.574Z,55.00
2018-07-04T14:47:33.037Z,53.60
2018-07-04T14:55:22.159Z,54.80
2018-07-04T14:58:02.713Z,52.10
2018-07-04T15:00:43.175Z,50.40
2018-07-04T15:03:23.859Z,50.60
2018-07-04T15:06:04.349Z,53.00
2018-07-04T15:08:44.720Z,55.20
2018-07-04T15:11:25.564Z,55.00
2018-07-04T15:14:05.941Z,55.90
2018-07-04T15:16:46.288Z,57.70
2018-07-04T15:19:26.683Z,56.00
2018-07-04T15:22:07.229Z,55.50
2018-07-04T15:24:47.800Z,55.50
2018-07-04T15:27:28.264Z,53.10
2018-07-04T15:30:08.630Z,53.40
2018-07-04T15:32:49.157Z,54.60
2018-07-04T15:35:29.811Z,57.40
2018-07-04T15:38:11.148Z,57.70
2018-07-04T15:40:51.554Z,58.90
2018-07-04T15:43:31.920Z,58.70
2018-07-04T15:46:12.348Z,61.20
2018-07-04T15:48:52.840Z,61.90
2018-07-04T15:56:42.271Z,62.80
2018-07-04T15:59:23.582Z,62.60
2018-07-04T16:02:04.236Z,62.90
2018-07-04T16:04:44.899Z,65.50
2018-07-04T16:07:25.354Z,65.40
2018-07-04T16:10:05.789Z,65.50
2018-07-04T16:12:46.463Z,67.60
2018-07-04T16:15:27.125Z,66.00
2018-07-04T16:18:07.571Z,67.40
2018-07-04T16:20:48.052Z,69.60
2018-07-04T16:23:29.409Z,71.80
2018-07-04T16:26:10.033Z,71.10
2018-07-04T16:28:50.384Z,70.90
2018-07-04T16:31:30.898Z,69.20
2018-07-04T16:34:11.456Z,71.60
2018-07-04T16:36:51.839Z,69.80
2018-07-04T16:42:06.528Z,71.70
2018-07-04T16:44:46.946Z,71.10
2018-07-04T16:47:27.382Z,71.80
2018-07-04T16:50:07.792Z,72.20
2018-07-04T16:52:48.110Z,72.30
2018-07-04T16:55:28.617Z,72.00
2018-07-04T16:58:08.864Z,71.40
2018-07-04T17:00:49.191Z,72.80
2018-07-04T17:03:29.577Z,74.20
2018-07-04T17:06:10.989Z,71.70
2018-07-04T17:08:51.418Z,72.10
2018-07-04T17:11:31.766Z,75.10
2018-07-04T17:14:12.031Z,73.80
2018-07-04T17:16:52.395Z,74.30
2018-07-04T17:19:32.859Z,74.80
2018-07-04T17:22:13.319Z,74.90
2018-07-04T17:24:53.783Z,77.20
2018-07-04T17:27:34.108Z,77.80
2018-07-04T17:30:14.515Z,79.50
2018-07-04T17:32:54.840Z,80.20
2018-07-04T17:35:35.537Z,79.60
2018-07-04T17:38:16.093Z,80.10
2018-07-04T17:40:56.460Z,80.50
2018-07-04T17:43:36.825Z,82.50
2018-07-04T17:46:17.332Z,83.50
2018-07-04T17:48:59.371Z,83.00
2018-07-04T17:51:39.775Z,83.20
2018-07-04T17:54:20.166Z,83.90
2018-07-04T17:57:00.676Z,83.60
2018-07-04T17:59:41.099Z,84.20
2018-07-04T18:02:21.567Z,84.20
2018-07-04T18:05:02.915Z,86.40
2018-07-04T18:07:43.380Z,86.20
2018-07-04T18:10:23.979Z,86.10
2018-07-04T18:13:04.345Z,85.10
2018-07-04T18:15:44.804Z,86.10
2018-07-04T18:18:25.171Z,86.90
2018-07-04T18:21:11.033Z,87.10
2018-07-04T18:23:51.456Z,86.70
2018-07-04T18:26:32.259Z,87.90
2018-07-04T18:29:12.774Z,88.10
2018-07-04T18:31:53.189Z,87.70
2018-07-04T18:34:33.469Z,87.00
2018-07-04T18:37:13.945Z,87.00
2018-07-04T18:39:54.386Z,87.70
2018-07-04T18:42:34.947Z,86.50
2018-07-04T18:45:15.312Z,86.40
2018-07-04T18:47:56.180Z,87.80
2018-07-04T18:50:36.911Z,88.10
2018-07-04T18:53:17.367Z,87.90
2018-07-04T18:55:57.739Z,87.70
2018-07-04T18:58:38.043Z,88.30
2018-07-04T19:01:18.322Z,89.30
2018-07-04T19:03:58.697Z,90.30
2018-07-04T19:06:39.166Z,90.60
2018-07-04T19:09:19.632Z,90.50
2018-07-04T19:12:00.181Z,90.80
2018-07-04T19:14:40.642Z,90.80
2018-07-04T19:17:21.048Z,91.00
2018-07-04T19:20:01.453Z,91.20
2018-07-04T19:22:41.834Z,91.40
2018-07-04T19:25:22.530Z,91.60
2018-07-04T19:28:03.266Z,91.70
2018-07-04T19:30:43.631Z,91.70
2018-07-04T19:33:24.436Z,91.80
2018-07-04T19:36:04.754Z,92.10
2018-07-04T19:38:45.764Z,92.50
2018-07-04T19:44:00.762Z,92.90
2018-07-04T19:46:41.563Z,92.70
2018-07-04T19:49:22.021Z,92.80
2018-07-04T19:52:02.397Z,92.80
2018-07-04T19:54:43.466Z,92.60
2018-07-04T19:57:24.233Z,92.60
2018-07-04T20:00:04.742Z,92.40
2018-07-04T20:02:45.184Z,92.30
2018-07-04T20:05:25.564Z,92.00
2018-07-04T20:08:05.919Z,91.70
2018-07-04T20:10:46.361Z,92.20
2018-07-04T20:13:26.817Z,92.20
2018-07-04T20:16:07.384Z,92.20
2018-07-04T20:18:47.737Z,92.20
2018-07-04T20:21:28.157Z,92.30
2018-07-04T20:24:08.455Z,92.70
2018-07-04T20:26:48.956Z,92.90
2018-07-04T20:29:29.981Z,92.90
2018-07-04T20:32:10.453Z,93.30
2018-07-04T20:37:26.571Z,93.60
2018-07-04T20:40:06.952Z,93.50
2018-07-04T20:42:47.330Z,93.40
2018-07-04T20:45:27.730Z,93.60
2018-07-04T20:48:08.051Z,93.50
2018-07-04T20:50:48.410Z,93.60
2018-07-04T20:53:28.835Z,93.40
2018-07-04T20:56:09.240Z,93.20
2018-07-04T20:58:49.714Z,93.10
2018-07-04T21:01:30.103Z,93.00
2018-07-04T21:04:10.467Z,93.60
2018-07-04T21:06:50.947Z,93.90
2018-07-04T21:09:31.159Z,94.10
2018-07-04T21:12:11.652Z,94.30
2018-07-04T21:14:51.927Z,94.40
2018-07-04T21:17:32.513Z,94.50
2018-07-04T21:20:12.841Z,94.30
2018-07-04T21:22:53.341Z,94.00
2018-07-04T21:25:33.665Z,93.90
2018-07-04T21:28:14.222Z,94.20
2018-07-04T21:30:54.932Z,94.40
2018-07-04T21:33:35.220Z,94.40
2018-07-04T21:36:15.987Z,94.80
2018-07-04T21:38:56.280Z,95.00
2018-07-04T21:41:36.568Z,95.10
2018-07-04T21:44:16.960Z,95.00
2018-07-04T21:46:57.371Z,95.20
2018-07-04T21:49:37.920Z,95.70
2018-07-04T21:52:18.211Z,96.10
2018-07-04T21:54:58.716Z,96.60
2018-07-04T21:57:39.146Z,96.90
2018-07-04T22:00:24.180Z,97.20
2018-07-04T22:03:04.580Z,97.30
2018-07-04T22:05:45.023Z,97.50
2018-07-04T22:08:25.543Z,97.50
2018-07-04T22:11:05.893Z,97.50
2018-07-04T22:16:21.309Z,97.30
2018-07-04T22:19:01.802Z,97.30
2018-07-04T22:21:42.045Z,97.30
2018-07-04T22:24:22.564Z,97.40
2018-07-04T22:27:02.985Z,97.50
2018-07-04T22:29:43.260Z,97.30
2018-07-04T22:32:23.788Z,97.30
2018-07-04T22:35:04.403Z,97.50
2018-07-04T22:37:44.668Z,97.60
2018-07-04T22:40:25.079Z,97.60
2018-07-04T22:43:05.590Z,97.90
2018-07-04T22:45:45.996Z,97.80
2018-07-04T22:48:27.056Z,97.50
2018-07-04T22:51:07.434Z,97.40
2018-07-04T22:53:47.988Z,97.30
2018-07-04T22:56:28.356Z,97.00
2018-07-04T22:59:08.701Z,96.70
2018-07-04T23:01:49.239Z,97.10
2018-07-04T23:04:29.605Z,97.30
2018-07-04T23:07:09.988Z,97.50
2018-07-04T23:09:50.540Z,97.50
2018-07-04T23:12:30.915Z,97.40
2018-07-04T23:15:11.230Z,97.20
2018-07-04T23:17:51.507Z,97.00
2018-07-04T23:20:31.925Z,96.60
2018-07-04T23:23:12.312Z,96.30
2018-07-04T23:25:52.610Z,96.20
2018-07-04T23:28:33.081Z,96.20
2018-07-04T23:31:13.484Z,96.30
2018-07-04T23:33:53.935Z,96.30
2018-07-04T23:36:34.267Z,96.60
2018-07-04T23:39:14.750Z,96.50
2018-07-04T23:41:55.265Z,96.00
2018-07-04T23:44:35.715Z,95.70
2018-07-04T23:47:16.016Z,95.90
2018-07-04T23:49:56.420Z,95.70
2018-07-04T23:52:36.682Z,96.30
2018-07-04T23:55:16.972Z,96.20
2018-07-04T23:57:58.034Z,96.50
